Time;durP1;ratioP1;P1;durP2;ratioP2;P2;SDS_P1;SDS_P2;PMS_P1;PMS_P2;Temp;Humidity;BMP_temperature;BMP_pressure;BME280_temperature;BME280_humidity;BME280_pressure;Samples;Min_cycle;Max_cycle;Signal;HPM_P1;HPM_P2
2022/06/06 00:00:18;;;;;;;10.00;9.00;;;;;;;15.11;67.43;98500.51;106598;1277;23293;-86
2022/06/06 00:03:03;;;;;;;10.80;9.70;;;;;;;15.09;67.59;98504.90;106251;1277;138426;-85
2022/06/06 00:05:30;;;;;;;10.20;9.30;;;;;;;15.08;67.58;98501.65;106385;1277;22581;-86
2022/06/06 00:08:12;;;;;;;11.00;9.20;;;;;;;15.06;67.74;98505.77;106441;1277;138076;-86
2022/06/06 00:10:56;;;;;;;10.30;9.20;;;;;;;15.04;67.80;98504.73;106752;1280;25252;-85
2022/06/06 00:13:23;;;;;;;11.00;9.90;;;;;;;15.00;67.99;98502.91;106638;1277;22557;-86
2022/06/06 00:16:05;;;;;;;11.30;9.70;;;;;;;14.96;67.94;98507.08;106337;1277;24320;-86
2022/06/06 00:18:33;;;;;;;12.50;9.70;;;;;;;14.92;68.02;98507.95;106536;1279;25032;-86
2022/06/06 00:21:00;;;;;;;10.30;9.20;;;;;;;14.90;68.14;98504.16;106663;1277;139380;-86
2022/06/06 00:23:27;;;;;;;11.50;9.80;;;;;;;14.87;68.31;98502.84;106406;1277;25496;-86
2022/06/06 00:25:56;;;;;;;17.00;10.00;;;;;;;14.85;68.36;98494.73;106269;1279;138076;-88
2022/06/06 00:28:24;;;;;;;12.00;10.20;;;;;;;14.83;68.53;98488.53;106775;1277;24273;-87
2022/06/06 00:37:07;;;;;;;10.70;9.50;;;;;;;14.75;69.01;98494.16;106415;1277;24268;-86
2022/06/06 00:39:34;;;;;;;11.70;9.70;;;;;;;14.71;69.14;98495.36;106334;1279;139066;-86
2022/06/06 00:42:31;;;;;;;11.40;10.30;;;;;;;14.69;69.14;98493.92;106502;1279;22623;-86
2022/06/06 00:45:26;;;;;;;11.60;10.40;;;;;;;14.66;69.51;98494.02;106266;1279;138361;-86
2022/06/06 00:48:11;;;;;;;11.70;10.50;;;;;;;14.62;69.65;98492.33;106496;1277;25547;-88
2022/06/06 00:50:48;;;;;;;11.30;10.20;;;;;;;14.58;69.69;98492.30;106162;1277;138088;-86
2022/06/06 00:53:23;;;;;;;12.10;10.80;;;;;;;14.54;69.96;98493.86;106409;1277;22574;-87
2022/06/06 00:55:56;;;;;;;11.50;10.30;;;;;;;14.50;70.15;98498.79;106236;1277;138593;-86
2022/06/06 00:58:26;;;;;;;11.00;9.80;;;;;;;14.48;70.33;98495.60;106441;1278;22570;-86
2022/06/06 01:01:08;;;;;;;11.80;10.60;;;;;;;14.48;70.46;98491.27;106473;1277;25280;-87
2022/06/06 01:03:50;;;;;;;11.70;10.50;;;;;;;14.46;70.60;98490.83;106256;1277;138099;-86
2022/06/06 01:06:19;;;;;;;12.70;11.20;;;;;;;14.45;70.79;98495.75;106607;1277;22552;-87
2022/06/06 01:08:48;;;;;;;13.10;11.00;;;;;;;14.42;70.80;98489.50;106306;1277;138181;-86
2022/06/06 01:11:15;;;;;;;12.00;10.70;;;;;;;14.42;70.80;98494.70;106645;1277;25256;-86
2022/06/06 01:13:45;;;;;;;13.80;11.70;;;;;;;14.36;70.97;98493.20;106473;1277;138482;-87
2022/06/06 01:16:40;;;;;;;12.00;10.80;;;;;;;14.32;70.94;98482.56;106507;1277;24261;-87
2022/06/06 01:19:45;;;;;;;12.80;11.10;;;;;;;14.29;71.18;98488.53;106655;1276;25260;-87
2022/06/06 01:22:30;;;;;;;12.70;11.30;;;;;;;14.25;71.30;98491.91;106382;1276;22531;-87
2022/06/06 01:25:22;;;;;;;13.50;11.80;;;;;;;14.21;71.53;98494.24;106511;1276;22575;-87
2022/06/06 01:28:25;;;;;;;14.10;11.60;;;;;;;14.18;71.81;98493.69;106440;1276;22554;-88
2022/06/06 01:31:32;;;;;;;14.30;11.60;;;;;;;14.17;71.87;98494.67;106496;1277;30694;-87
2022/06/06 01:34:03;;;;;;;11.70;10.20;;;;;;;14.15;71.87;98496.52;106055;1277;138458;-87
2022/06/06 01:36:50;;;;;;;13.90;11.00;;;;;;;14.13;71.87;98498.10;106007;1277;24212;-87
2022/06/06 01:39:32;;;;;;;14.10;11.40;;;;;;;14.14;72.00;98501.55;106117;1277;138016;-87
2022/06/06 01:42:37;;;;;;;13.40;11.90;;;;;;;14.12;72.22;98500.02;106870;1277;22540;-87
2022/06/06 01:45:30;;;;;;;14.30;12.10;;;;;;;14.09;72.20;98497.48;106120;1276;137937;-87
2022/06/06 01:48:19;;;;;;;13.80;12.10;;;;;;;14.00;72.20;98498.04;106177;1277;22551;-87
2022/06/06 01:50:46;;;;;;;12.80;10.80;;;;;;;13.93;72.22;98494.23;106282;1277;138958;-87
2022/06/06 01:53:22;;;;;;;14.00;10.80;;;;;;;13.86;72.43;98494.52;106174;1277;22573;-87
2022/06/06 01:56:06;;;;;;;15.20;11.20;;;;;;;13.79;72.82;98489.40;106226;1277;138972;-87
2022/06/06 01:58:34;;;;;;;12.30;11.00;;;;;;;13.73;72.90;98485.26;106393;1277;25236;-87
2022/06/06 02:01:15;;;;;;;14.50;11.40;;;;;;;13.65;73.18;98482.68;106407;1277;25397;-87
2022/06/06 02:03:43;;;;;;;13.30;11.70;;;;;;;13.59;73.38;98482.05;106090;1277;137982;-87
2022/06/06 02:06:24;;;;;;;12.80;11.30;;;;;;;13.54;73.63;98482.18;106174;1277;25259;-87
2022/06/06 02:09:05;;;;;;;11.70;10.40;;;;;;;13.52;73.86;98482.27;106016;1277;138674;-88
2022/06/06 02:11:46;;;;;;;12.30;10.90;;;;;;;13.52;74.05;98485.67;106225;1277;24240;-87
2022/06/06 02:14:13;;;;;;;15.80;11.50;;;;;;;13.52;74.13;98485.17;106038;1277;138254;-90
2022/06/06 02:16:54;;;;;;;14.50;11.40;;;;;;;13.56;74.15;98490.84;106049;1277;25558;-87
2022/06/06 02:19:21;;;;;;;13.50;10.80;;;;;;;13.57;74.10;98494.13;106180;1277;22736;-87
2022/06/06 02:22:02;;;;;;;11.20;10.10;;;;;;;13.50;73.71;98494.41;106211;1277;22662;-88
2022/06/06 02:24:43;;;;;;;11.40;10.20;;;;;;;13.37;73.01;98493.61;105905;1277;24032;-89
2022/06/06 02:27:25;;;;;;;11.40;9.40;;;;;;;13.26;73.11;98484.91;105977;1277;138710;-87
2022/06/06 02:30:28;;;;;;;11.50;10.30;;;;;;;13.22;73.49;98479.20;105858;1277;23039;-87
2022/06/06 02:33:08;;;;;;;12.80;10.70;;;;;;;13.18;74.13;98473.30;106462;1277;138084;-88
2022/06/06 02:35:40;;;;;;;14.30;11.30;;;;;;;13.14;74.59;98465.07;106097;1277;22615;-88
2022/06/06 02:38:09;;;;;;;13.10;11.30;;;;;;;13.11;75.07;98460.95;106038;1277;138569;-88
2022/06/06 02:40:37;;;;;;;13.40;10.50;;;;;;;13.12;75.10;98465.27;106211;1279;24903;-88
2022/06/06 02:43:18;;;;;;;13.70;10.20;;;;;;;13.17;75.57;98466.46;106391;1278;22698;-88
2022/06/06 02:46:01;;;;;;;12.90;10.80;;;;;;;13.20;75.34;98463.70;105937;1278;138442;-88
2022/06/06 02:48:30;;;;;;;12.20;10.80;;;;;;;13.23;75.41;98462.74;106181;1279;25395;-88
2022/06/06 02:51:11;;;;;;;14.70;11.00;;;;;;;13.25;75.66;98460.51;106386;1278;138033;-89
2022/06/06 02:53:39;;;;;;;12.30;10.80;;;;;;;13.27;75.77;98455.83;106158;1277;22538;-88
2022/06/06 02:56:20;;;;;;;11.40;9.70;;;;;;;13.29;75.74;98455.80;106146;1277;138519;-88
2022/06/06 02:58:47;;;;;;;12.00;9.70;;;;;;;13.34;75.67;98459.45;106091;1277;22548;-88
2022/06/06 03:01:28;;;;;;;10.70;9.70;;;;;;;13.37;75.69;98451.21;105983;1277;22697;-87
2022/06/06 03:03:55;;;;;;;12.80;9.60;;;;;;;13.40;75.68;98450.69;106484;1277;137358;-88
2022/06/06 03:06:47;;;;;;;12.50;9.90;;;;;;;13.44;75.62;98454.05;106427;1277;25378;-88
2022/06/06 03:09:50;;;;;;;11.10;10.00;;;;;;;13.51;75.73;98465.14;106154;1277;137902;-89
2022/06/06 03:12:34;;;;;;;10.90;8.70;;;;;;;13.59;75.48;98478.38;106284;1277;23820;-89
2022/06/06 03:15:35;;;;;;;13.60;9.50;;;;;;;13.66;75.30;98477.77;105823;1277;138648;-88
2022/06/06 03:21:33;;;;;;;11.20;10.00;;;;;;;13.84;75.25;98464.89;106175;1277;138220;-88
2022/06/06 03:24:19;;;;;;;11.60;10.40;;;;;;;13.87;75.02;98463.43;106216;1277;31907;-89
2022/06/06 03:27:02;;;;;;;10.30;9.30;;;;;;;13.91;74.74;98472.10;106216;1277;137938;-89
2022/06/06 03:29:41;;;;;;;10.20;9.20;;;;;;;13.94;74.59;98483.83;106319;1277;22540;-89
2022/06/06 03:32:47;;;;;;;13.40;10.40;;;;;;;13.98;74.41;98501.05;106335;1277;138130;-88
2022/06/06 03:35:28;;;;;;;13.00;10.60;;;;;;;13.98;73.98;98509.86;106397;1276;22554;-89
2022/06/06 03:38:24;;;;;;;13.80;11.60;;;;;;;13.95;73.82;98511.77;106192;1276;137966;-89
2022/06/06 03:41:22;;;;;;;15.20;11.70;;;;;;;13.94;73.58;98514.55;106686;1277;25345;-89
2022/06/06 03:44:09;;;;;;;13.30;11.40;;;;;;;13.90;73.51;98518.84;106356;1277;137961;-89
2022/06/06 03:47:15;;;;;;;17.10;11.20;;;;;;;13.89;73.69;98516.70;106305;1277;22694;-89
2022/06/06 03:50:37;;;;;;;13.00;9.20;;;;;;;13.91;73.69;98518.09;106666;1277;138858;-88
2022/06/06 03:53:10;;;;;;;11.80;10.30;;;;;;;13.92;73.64;98514.16;106307;1277;24671;-88
2022/06/06 03:55:54;;;;;;;13.60;11.00;;;;;;;13.91;73.55;98512.35;106224;1277;140336;-88
2022/06/06 03:58:36;;;;;;;13.30;11.10;;;;;;;13.90;73.95;98508.77;106450;1277;23380;-89
2022/06/06 04:01:08;;;;;;;12.20;10.70;;;;;;;13.91;73.94;98501.39;106415;1277;24300;-88
2022/06/06 04:03:37;;;;;;;11.50;10.30;;;;;;;13.86;74.13;98488.88;106384;1277;137768;-89
2022/06/06 04:06:19;;;;;;;10.10;9.10;;;;;;;13.85;74.56;98488.70;106030;1277;23404;-87
2022/06/06 04:09:01;;;;;;;12.10;10.50;;;;;;;13.87;74.84;98474.66;106017;1277;138256;-89
2022/06/06 04:11:53;;;;;;;12.30;10.40;;;;;;;13.90;75.15;98476.73;106049;1277;23345;-89
2022/06/06 04:14:59;;;;;;;11.80;10.70;;;;;;;13.99;75.47;98489.77;106218;1277;138245;-90
2022/06/06 04:17:40;;;;;;;11.40;10.20;;;;;;;14.07;75.51;98499.34;106231;1277;22550;-89
2022/06/06 04:21:01;;;;;;;10.90;9.80;;;;;;;14.18;75.47;98490.45;106221;1277;138899;-89
2022/06/06 04:23:58;;;;;;;11.70;10.50;;;;;;;14.31;75.21;98480.30;106355;1277;26494;-89
2022/06/06 04:26:48;;;;;;;12.70;11.00;;;;;;;14.39;74.98;98483.35;106189;1277;138018;-89
2022/06/06 04:29:44;;;;;;;12.60;11.30;;;;;;;14.49;74.72;98493.58;106432;1277;22719;-87
2022/06/06 04:32:50;;;;;;;14.40;11.70;;;;;;;14.60;74.65;98491.60;106346;1277;138349;-87
2022/06/06 04:35:39;;;;;;;11.20;10.00;;;;;;;14.72;74.66;98482.91;106470;1277;30395;-87
2022/06/06 04:38:55;;;;;;;11.40;10.20;;;;;;;14.86;74.14;98487.16;106314;1277;138808;-88
2022/06/06 04:41:59;;;;;;;11.00;9.90;;;;;;;15.02;73.95;98491.79;106988;1277;22545;-88
2022/06/06 04:44:39;;;;;;;12.60;10.70;;;;;;;15.14;73.86;98490.52;106353;1277;138351;-88
2022/06/06 04:47:35;;;;;;;12.00;10.70;;;;;;;15.27;73.62;98480.20;106466;1277;25364;-88
2022/06/06 04:50:10;;;;;;;13.10;10.20;;;;;;;15.38;73.39;98481.23;106489;1277;138410;-88
2022/06/06 04:52:59;;;;;;;12.90;10.20;;;;;;;15.48;73.12;98480.63;106263;1277;22562;-88
2022/06/06 04:55:30;;;;;;;12.90;10.50;;;;;;;15.56;72.80;98481.65;106464;1276;24229;-87
2022/06/06 04:58:13;;;;;;;14.50;10.00;;;;;;;15.67;72.66;98474.92;106547;1276;23486;-87
2022/06/06 05:00:42;;;;;;;14.30;10.20;;;;;;;15.77;72.26;98473.56;106291;1278;22487;-87
2022/06/06 05:03:09;;;;;;;11.60;10.40;;;;;;;15.87;71.95;98472.88;106383;1277;138054;-87
2022/06/06 05:06:30;;;;;;;11.10;10.00;;;;;;;15.97;71.76;98471.36;106606;1277;25248;-87
2022/06/06 05:09:47;;;;;;;10.60;9.50;;;;;;;16.12;71.64;98474.34;106829;1277;138079;-88
2022/06/06 05:12:45;;;;;;;10.50;9.30;;;;;;;16.26;71.16;98474.32;106601;1277;23528;-87
2022/06/06 05:15:41;;;;;;;11.00;9.30;;;;;;;16.40;70.39;98473.05;106610;1277;137844;-87
2022/06/06 05:18:27;;;;;;;10.20;9.20;;;;;;;16.53;70.31;98470.83;106714;1277;24231;-87
2022/06/06 05:21:22;;;;;;;10.70;9.30;;;;;;;16.68;69.86;98476.02;106740;1277;137879;-86
2022/06/06 05:24:02;;;;;;;10.00;8.70;;;;;;;16.85;69.82;98483.38;106443;1277;24234;-86
2022/06/06 05:26:58;;;;;;;10.20;8.80;;;;;;;17.03;69.47;98482.02;106501;1277;137787;-85
2022/06/06 05:29:39;;;;;;;10.20;8.30;;;;;;;17.20;68.24;98478.48;106454;1277;22587;-86
2022/06/06 05:32:13;;;;;;;9.60;8.50;;;;;;;17.32;67.79;98477.95;106277;1277;138387;-86
2022/06/06 05:34:58;;;;;;;8.50;7.60;;;;;;;17.47;67.23;98483.59;106456;1276;26686;-87
2022/06/06 05:37:54;;;;;;;8.30;7.50;;;;;;;17.58;66.93;98483.48;106456;1278;32810;-87
2022/06/06 05:40:44;;;;;;;8.90;7.30;;;;;;;17.74;66.52;98486.58;106407;1277;22577;-86
2022/06/06 05:44:16;;;;;;;9.60;7.60;;;;;;;17.90;66.32;98489.46;106803;1277;22717;-86
2022/06/06 05:47:10;;;;;;;10.90;8.70;;;;;;;18.05;65.90;98484.11;106275;1278;24306;-87
2022/06/06 05:50:11;;;;;;;8.60;7.70;;;;;;;18.17;65.84;98487.39;106680;1277;139046;-87
2022/06/06 05:53:24;;;;;;;8.70;7.80;;;;;;;18.34;65.32;98487.56;106437;1277;23350;-87
2022/06/06 05:56:34;;;;;;;8.80;8.00;;;;;;;18.49;65.13;98490.46;106112;1277;137842;-87
2022/06/06 05:59:18;;;;;;;9.90;7.50;;;;;;;18.67;64.59;98496.33;106479;1277;22550;-86
2022/06/06 06:01:51;;;;;;;8.80;7.40;;;;;;;18.76;64.02;98496.53;106267;1278;137922;-85
2022/06/06 06:04:53;;;;;;;8.10;7.30;;;;;;;18.88;63.36;98509.15;106609;1277;24308;-85
2022/06/06 06:07:58;;;;;;;12.50;7.90;;;;;;;18.99;62.74;98509.31;106880;1277;23173;-85
2022/06/06 06:11:06;;;;;;;15.80;8.00;;;;;;;19.12;62.01;98510.50;106606;1277;22701;-85
2022/06/06 06:13:53;;;;;;;19.50;8.80;;;;;;;19.22;61.59;98508.13;106343;1277;22559;-86
2022/06/06 06:16:26;;;;;;;13.60;8.50;;;;;;;19.35;61.41;98509.08;106813;1277;23398;-85
2022/06/06 06:19:07;;;;;;;13.40;8.00;;;;;;;19.46;61.42;98510.60;106865;1277;22618;-88
2022/06/06 06:21:39;;;;;;;15.70;8.20;;;;;;;19.55;60.90;98508.14;106425;1277;138520;-85
2022/06/06 06:24:14;;;;;;;14.10;8.60;;;;;;;19.60;60.70;98505.17;106363;1278;24497;-85
2022/06/06 06:26:56;;;;;;;;;;;;;;;19.60;59.88;98508.05;106406;1277;137816;-85
2022/06/06 06:29:24;;;;;;;14.00;8.30;;;;;;;19.59;59.93;98509.84;106342;1278;22585;-86
2022/06/06 06:32:22;;;;;;;12.60;8.80;;;;;;;19.64;60.31;98513.50;106585;1277;138357;-84
2022/06/06 06:35:12;;;;;;;20.10;9.60;;;;;;;19.74;60.12;98513.02;106413;1278;25401;-85
2022/06/06 06:37:57;;;;;;;17.40;9.20;;;;;;;19.83;60.01;98506.12;106439;1280;138102;-87
2022/06/06 06:40:42;;;;;;;13.70;9.50;;;;;;;19.89;59.76;98506.17;107004;1277;22613;-81
2022/06/06 06:43:47;;;;;;;15.70;9.20;;;;;;;19.92;58.95;98504.67;106870;1277;24224;-83
2022/06/06 06:46:21;;;;;;;18.70;9.20;;;;;;;19.98;58.79;98501.07;106360;1278;22664;-87
2022/06/06 06:48:53;;;;;;;15.40;9.00;;;;;;;20.04;58.68;98505.98;106995;1277;25526;-87
2022/06/06 06:51:52;;;;;;;19.20;10.40;;;;;;;20.12;58.59;98503.68;106435;1277;137728;-87
2022/06/06 06:55:04;;;;;;;18.20;9.10;;;;;;;20.25;57.86;98512.98;106441;1278;24300;-87
2022/06/06 06:57:58;;;;;;;25.10;9.40;;;;;;;20.36;57.11;98509.88;106490;1277;138565;-87
2022/06/06 07:00:26;;;;;;;20.40;9.70;;;;;;;20.41;57.02;98506.98;106352;1277;22560;-87
2022/06/06 07:10:10;;;;;;;19.70;9.10;;;;;;;20.58;55.67;98503.56;106896;1277;137812;-87
2022/06/06 07:13:15;;;;;;;17.10;8.00;;;;;;;20.62;55.42;98498.13;106468;1277;23395;-87
2022/06/06 07:16:03;;;;;;;10.90;7.30;;;;;;;20.70;54.92;98494.80;106968;1277;137591;-88
2022/06/06 07:18:36;;;;;;;13.30;7.00;;;;;;;20.79;54.68;98495.83;106583;1277;22497;-87
2022/06/06 07:21:07;;;;;;;18.20;7.20;;;;;;;20.91;54.21;98499.77;106005;1277;138411;-87
2022/06/06 07:23:39;;;;;;;14.60;7.00;;;;;;;20.97;53.63;98496.29;106596;1277;24418;-87
2022/06/06 07:26:10;;;;;;;14.20;6.00;;;;;;;21.06;53.89;98498.92;106326;1277;138067;-87
2022/06/06 07:28:38;;;;;;;11.10;7.60;;;;;;;21.12;53.58;98498.88;106493;1278;22541;-87
2022/06/06 07:31:31;;;;;;;13.30;8.60;;;;;;;21.19;52.58;98503.20;106455;1277;22551;-87
2022/06/06 07:34:17;;;;;;;12.40;6.50;;;;;;;21.30;52.13;98494.19;106778;1277;22553;-87
2022/06/06 07:37:36;;;;;;;11.90;5.80;;;;;;;21.45;51.96;98493.20;106619;1277;22574;-86
2022/06/06 07:40:28;;;;;;;11.60;7.30;;;;;;;21.64;51.11;98494.46;106544;1277;22556;-87
2022/06/06 07:43:19;;;;;;;12.80;6.50;;;;;;;21.77;50.62;98495.72;107490;1277;25525;-87
2022/06/06 07:45:51;;;;;;;11.50;6.50;;;;;;;21.91;50.44;98493.11;106995;1277;138530;-87
2022/06/06 07:48:22;;;;;;;9.70;6.10;;;;;;;22.06;50.13;98497.87;106815;1277;22743;-86
2022/06/06 07:51:11;;;;;;;17.40;6.20;;;;;;;22.21;49.71;98506.06;106888;1277;138142;-87
2022/06/06 07:54:13;;;;;;;11.20;6.10;;;;;;;22.34;49.40;98502.27;106776;1277;22710;-86
2022/06/06 07:57:34;;;;;;;9.60;5.50;;;;;;;22.57;48.90;98494.10;106655;1277;137859;-86
2022/06/06 08:00:07;;;;;;;14.80;5.90;;;;;;;22.75;48.27;98499.33;107226;1277;25358;-86
2022/06/06 08:03:07;;;;;;;15.30;6.40;;;;;;;22.94;48.25;98499.25;106726;1277;138195;-87
2022/06/06 08:06:19;;;;;;;10.70;5.50;;;;;;;23.11;48.12;98499.84;106916;1277;22688;-86
2022/06/06 08:09:24;;;;;;;11.70;5.60;;;;;;;23.26;47.49;98492.31;106700;1277;138298;-87
2022/06/06 08:12:26;;;;;;;10.80;5.80;;;;;;;23.38;47.59;98492.92;106572;1277;23258;-88
2022/06/06 08:15:11;;;;;;;10.60;5.60;;;;;;;23.55;46.92;98494.53;106941;1277;137785;-87
2022/06/06 08:17:49;;;;;;;7.80;5.90;;;;;;;23.71;46.45;98489.58;106653;1277;25550;-88
2022/06/06 08:20:27;;;;;;;6.30;5.00;;;;;;;23.82;45.30;98485.81;106297;1277;138193;-88
2022/06/06 08:23:01;;;;;;;9.30;5.30;;;;;;;23.88;45.27;98492.41;106527;1277;22560;-88
2022/06/06 08:25:30;;;;;;;10.50;6.10;;;;;;;23.94;45.31;98490.92;106672;1277;22553;-88
2022/06/06 08:27:59;;;;;;;6.20;4.90;;;;;;;23.97;44.86;98486.35;106804;1277;137842;-88
2022/06/06 08:30:33;;;;;;;9.80;5.70;;;;;;;24.02;44.84;98487.42;106583;1277;22568;-88
2022/06/06 08:33:05;;;;;;;9.30;5.80;;;;;;;24.09;44.32;98485.42;106391;1277;138545;-88
2022/06/06 08:36:11;;;;;;;9.90;5.50;;;;;;;24.13;44.17;98481.14;106586;1277;22537;-87
2022/06/06 08:38:47;;;;;;;7.40;5.30;;;;;;;24.25;44.34;98482.23;106156;1277;138467;-88
2022/06/06 08:41:31;;;;;;;9.50;5.60;;;;;;;24.38;44.33;98481.84;106971;1277;22629;-88
2022/06/06 08:44:01;;;;;;;9.50;5.40;;;;;;;24.53;44.32;98480.25;106316;1277;138415;-88
2022/06/06 08:46:39;;;;;;;5.90;5.30;;;;;;;24.67;43.58;98476.71;106410;1276;22697;-87
2022/06/06 08:53:02;;;;;;;10.50;5.20;;;;;;;24.86;42.53;98480.81;106599;1277;30258;-88
2022/06/06 08:55:45;;;;;;;7.70;5.30;;;;;;;24.96;43.11;98486.89;106840;1277;22539;-86
2022/06/06 08:58:33;;;;;;;8.50;5.70;;;;;;;24.97;42.83;98488.05;106438;1277;24354;-86
2022/06/06 09:01:52;;;;;;;5.80;4.80;;;;;;;24.89;42.17;98486.86;106255;1278;25477;-86
2022/06/06 09:04:28;;;;;;;6.90;5.10;;;;;;;24.83;41.33;98487.19;106509;1277;22603;-86
2022/06/06 09:07:27;;;;;;;8.70;5.60;;;;;;;24.94;40.04;98480.39;106518;1277;22538;-86
2022/06/06 09:10:03;;;;;;;;;;;;;;;25.12;40.63;98476.27;106725;1277;137450;-87
2022/06/06 09:12:39;;;;;;;8.10;4.80;;;;;;;25.32;40.90;98470.67;106403;1277;22562;-86
2022/06/06 09:15:12;;;;;;;6.30;4.70;;;;;;;25.54;40.55;98471.34;106807;1277;138168;-87
2022/06/06 09:17:58;;;;;;;5.10;4.70;;;;;;;25.75;39.94;98470.58;106579;1277;22706;-86
2022/06/06 09:21:05;;;;;;;7.90;5.30;;;;;;;25.96;40.48;98472.02;106830;1276;137967;-87
2022/06/06 09:24:04;;;;;;;10.00;5.30;;;;;;;26.15;39.05;98467.17;106318;1277;29739;-86
2022/06/06 09:26:59;;;;;;;10.40;5.00;;;;;;;26.30;38.71;98462.14;106546;1277;138011;-87
2022/06/06 09:30:06;;;;;;;5.90;4.80;;;;;;;26.46;37.92;98461.92;107062;1276;24253;-86
2022/06/06 09:33:22;;;;;;;5.50;4.60;;;;;;;26.64;37.25;98463.95;106435;1276;138211;-86
2022/06/06 09:36:11;;;;;;;5.50;4.60;;;;;;;26.79;37.03;98460.34;106903;1276;22657;-86
2022/06/06 09:39:16;;;;;;;7.20;4.60;;;;;;;26.93;36.32;98460.91;106406;1277;137741;-85
2022/06/06 09:42:02;;;;;;;5.50;4.80;;;;;;;27.05;35.60;98450.08;106469;1277;22576;-82
2022/06/06 09:44:57;;;;;;;5.20;4.30;;;;;;;27.21;36.09;98452.06;106551;1276;138343;-83
2022/06/06 09:48:01;;;;;;;5.50;4.20;;;;;;;27.31;34.85;98447.59;106395;1276;22549;-83
2022/06/06 09:50:51;;;;;;;11.70;4.70;;;;;;;27.45;35.04;98449.73;106193;1276;137554;-83
2022/06/06 09:59:01;;;;;;;4.40;3.90;;;;;;;27.63;34.45;98447.17;106659;1277;22725;-85
2022/06/06 10:00:12;;;;;;;4.20;3.90;;;;;;;27.88;33.45;98447.97;106482;1277;22592;-87
2022/06/06 10:03:18;;;;;;;5.30;4.10;;;;;;;27.94;34.26;98445.98;106606;1277;137418;-86
2022/06/06 10:06:33;;;;;;;4.60;4.30;;;;;;;28.10;34.37;98446.80;106486;1277;25298;-88
2022/06/06 10:09:26;;;;;;;8.70;4.10;;;;;;;28.29;34.42;98444.84;106403;1277;137584;-87
2022/06/06 10:12:08;;;;;;;5.30;3.70;;;;;;;28.47;33.88;98439.96;106336;1275;23430;-88
2022/06/06 10:14:41;;;;;;;4.00;3.60;;;;;;;28.54;33.62;98439.45;105949;1277;621345;-89
2022/06/06 10:17:46;;;;;;;5.90;4.20;;;;;;;28.64;33.68;98437.41;106504;1277;22556;-87
2022/06/06 10:20:29;;;;;;;4.30;4.00;;;;;;;28.72;33.73;98432.33;106308;1277;137871;-88
2022/06/06 10:23:01;;;;;;;5.50;4.30;;;;;;;28.74;33.93;98436.27;106580;1277;25331;-87
2022/06/06 10:25:47;;;;;;;4.70;4.30;;;;;;;28.66;32.69;98432.02;106838;1276;24230;-87
2022/06/06 10:28:18;;;;;;;4.20;3.70;;;;;;;28.62;33.43;98429.86;106409;1277;22567;-87
2022/06/06 10:31:32;;;;;;;4.60;4.20;;;;;;;28.72;33.92;98427.19;106825;1277;22602;-87
2022/06/06 10:34:40;;;;;;;4.60;4.20;;;;;;;28.92;32.84;98422.49;106687;1277;24264;-87
2022/06/06 10:37:23;;;;;;;6.10;3.60;;;;;;;29.13;33.09;98417.33;106144;1276;25245;-78
2022/06/06 10:40:36;;;;;;;6.70;4.40;;;;;;;29.38;32.59;98411.95;106920;1277;22618;-84
2022/06/06 10:43:29;;;;;;;4.20;3.70;;;;;;;29.61;32.68;98412.30;106303;1277;22550;-86
2022/06/06 10:46:23;;;;;;;4.10;3.80;;;;;;;29.72;32.02;98410.75;106467;1277;30505;-85
2022/06/06 10:48:59;;;;;;;4.90;4.10;;;;;;;29.75;32.04;98409.43;106390;1277;25248;-86
2022/06/06 10:51:48;;;;;;;5.20;4.10;;;;;;;29.82;32.12;98410.94;106352;1277;138339;-85
2022/06/06 10:55:07;;;;;;;4.90;3.70;;;;;;;29.96;31.86;98412.15;106528;1277;22564;-87
2022/06/06 10:58:10;;;;;;;4.00;3.70;;;;;;;29.99;31.20;98406.17;106114;1277;140515;-84
2022/06/06 11:01:15;;;;;;;5.40;3.90;;;;;;;29.88;30.61;98399.42;106808;1276;24269;-81
2022/06/06 11:03:53;;;;;;;4.30;3.90;;;;;;;29.96;31.08;98394.33;106599;1276;137754;-88
2022/06/06 11:06:52;;;;;;;4.20;3.80;;;;;;;30.01;30.68;98396.81;106497;1276;30538;-86
2022/06/06 11:09:50;;;;;;;4.10;3.80;;;;;;;30.02;30.42;98394.91;106539;1277;137764;-80
2022/06/06 11:12:50;;;;;;;4.80;4.20;;;;;;;30.16;30.81;98390.38;106608;1277;22573;-85
2022/06/06 11:15:18;;;;;;;5.90;4.30;;;;;;;30.27;30.40;98389.43;106454;1277;137676;-83
2022/06/06 11:18:23;;;;;;;4.60;4.20;;;;;;;30.41;30.54;98386.13;106605;1276;22558;-83
2022/06/06 11:21:35;;;;;;;6.30;4.10;;;;;;;30.67;29.36;98383.27;106208;1277;139932;-83
2022/06/06 11:24:20;;;;;;;4.40;4.10;;;;;;;30.76;29.25;98387.73;106311;1277;25415;-83
2022/06/06 11:27:23;;;;;;;4.80;3.80;;;;;;;30.89;29.20;98382.73;106678;1277;138107;-83
2022/06/06 11:30:20;;;;;;;5.20;3.90;;;;;;;30.91;29.19;98383.27;106737;1275;25322;-83
2022/06/06 11:33:13;;;;;;;3.80;3.10;;;;;;;31.04;28.75;98376.36;106214;1277;138267;-82
2022/06/06 11:36:05;;;;;;;6.40;3.80;;;;;;;31.13;28.77;98379.20;107316;1277;22633;-83
2022/06/06 11:39:06;;;;;;;3.70;3.40;;;;;;;31.30;28.49;98375.92;106155;1277;138151;-81
2022/06/06 11:42:14;;;;;;;3.60;3.30;;;;;;;31.55;28.44;98378.05;106465;1277;22557;-82
2022/06/06 11:45:18;;;;;;;3.80;3.50;;;;;;;31.71;27.08;98373.52;106877;1277;137614;-82
2022/06/06 11:48:09;;;;;;;4.10;3.80;;;;;;;31.70;26.68;98373.77;106402;1276;29890;-81
2022/06/06 11:50:45;;;;;;;3.90;3.50;;;;;;;31.69;26.62;98373.44;106826;1277;138765;-81
2022/06/06 11:53:52;;;;;;;3.30;3.10;;;;;;;31.75;26.38;98371.72;106535;1277;24231;-81
2022/06/06 11:56:41;;;;;;;7.60;3.70;;;;;;;31.73;24.80;98367.02;106114;1277;142969;-82
2022/06/06 11:59:32;;;;;;;3.50;3.20;;;;;;;31.38;25.14;98361.13;106473;1277;24241;-81
2022/06/06 12:02:18;;;;;;;3.30;3.00;;;;;;;31.34;26.30;98364.40;106757;1277;138176;-81
2022/06/06 12:05:29;;;;;;;5.90;4.10;;;;;;;31.45;26.40;98362.89;106898;1277;22571;-82
2022/06/06 12:08:18;;;;;;;4.50;3.40;;;;;;;31.43;26.26;98360.63;106308;1277;138778;-81
2022/06/06 12:11:15;;;;;;;4.20;3.60;;;;;;;31.08;26.87;98359.45;106866;1276;25282;-80
2022/06/06 12:13:55;;;;;;;7.40;4.10;;;;;;;31.03;26.56;98354.89;106210;1277;137620;-86
2022/06/06 12:16:39;;;;;;;4.20;3.60;;;;;;;31.14;26.12;98349.31;106796;1277;24786;-83
2022/06/06 12:19:12;;;;;;;4.80;3.80;;;;;;;31.24;25.28;98345.80;106731;1276;22587;-82
2022/06/06 12:21:57;;;;;;;6.00;3.50;;;;;;;31.26;26.33;98341.71;106652;1277;138425;-81
2022/06/06 12:24:44;;;;;;;4.10;3.30;;;;;;;31.38;25.60;98342.33;107335;1276;22637;-83
2022/06/06 12:27:46;;;;;;;4.20;3.60;;;;;;;31.52;25.62;98337.48;106699;1277;137789;-81
2022/06/06 12:30:45;;;;;;;3.60;3.20;;;;;;;31.65;25.07;98336.23;106733;1276;23468;-81
2022/06/06 12:33:44;;;;;;;3.00;2.80;;;;;;;31.62;25.80;98333.56;106274;1277;138156;-81
2022/06/06 12:36:37;;;;;;;3.80;3.30;;;;;;;31.78;25.31;98326.42;106413;1277;22820;-81
2022/06/06 12:39:20;;;;;;;3.40;3.10;;;;;;;31.79;24.73;98320.89;106355;1277;137974;-81
2022/06/06 12:41:59;;;;;;;3.10;2.80;;;;;;;31.92;24.24;98318.01;106733;1276;24384;-81
2022/06/06 12:44:48;;;;;;;3.40;3.10;;;;;;;32.07;24.55;98309.77;106552;1276;138295;-81
2022/06/06 12:47:39;;;;;;;4.30;3.30;;;;;;;32.24;24.88;98307.22;106933;1277;24270;-81
2022/06/06 12:50:25;;;;;;;2.90;2.70;;;;;;;32.34;24.41;98301.46;106571;1277;137894;-81
2022/06/06 12:53:31;;;;;;;3.40;3.10;;;;;;;32.42;24.47;98303.12;106526;1277;22569;-81
2022/06/06 12:56:25;;;;;;;3.20;3.00;;;;;;;32.44;23.46;98297.98;106885;1277;139310;-81
2022/06/06 12:59:13;;;;;;;3.70;2.90;;;;;;;32.20;22.89;98291.56;106690;1277;22537;-82
2022/06/06 13:02:27;;;;;;;3.10;2.90;;;;;;;32.18;23.63;98288.34;106483;1277;138202;-82
2022/06/06 13:05:02;;;;;;;6.80;2.90;;;;;;;32.31;24.52;98288.98;106714;1277;22531;-80
2022/06/06 13:08:03;;;;;;;3.70;3.40;;;;;;;32.47;23.92;98282.60;106612;1277;138238;-81
2022/06/06 13:11:32;;;;;;;4.70;2.80;;;;;;;32.59;24.10;98280.73;106502;1277;24242;-81